createdAt,value
2022-10-05T00:00:39.455Z,10.69
2022-10-05T00:01:39.540Z,10.68
2022-10-05T00:02:39.484Z,10.67
2022-10-05T00:03:39.443Z,10.66
2022-10-05T00:04:39.529Z,10.65
2022-10-05T00:05:39.394Z,10.64
2022-10-05T00:06:39.380Z,10.63
2022-10-05T00:07:39.375Z,10.62
2022-10-05T00:08:39.418Z,10.62
2022-10-05T00:09:39.348Z,10.62
2022-10-05T00:10:39.332Z,10.62
2022-10-05T00:11:39.336Z,10.62
2022-10-05T00:12:39.301Z,10.63
2022-10-05T00:13:39.299Z,10.63
2022-10-05T00:14:39.286Z,10.62
2022-10-05T00:15:39.266Z,10.62
2022-10-05T00:16:39.342Z,10.60
2022-10-05T00:17:39.241Z,10.59
2022-10-05T00:18:39.252Z,10.58
2022-10-05T00:19:39.218Z,10.56
2022-10-05T00:20:39.196Z,10.55
2022-10-05T00:21:39.228Z,10.54
2022-10-05T00:22:39.170Z,10.53
2022-10-05T00:23:39.160Z,10.51
2022-10-05T00:24:39.203Z,10.50
2022-10-05T00:25:39.133Z,10.48
2022-10-05T00:26:39.119Z,10.46
2022-10-05T00:27:39.112Z,10.44
2022-10-05T00:28:39.146Z,10.41
2022-10-05T00:29:39.087Z,10.39
2022-10-05T00:30:39.122Z,10.37
2022-10-05T00:31:39.185Z,10.35
2022-10-05T00:32:39.053Z,10.33
2022-10-05T00:33:39.034Z,10.31
2022-10-05T00:34:39.063Z,10.28
2022-10-05T00:35:39.018Z,10.24
2022-10-05T00:36:38.987Z,10.20
2022-10-05T00:37:38.981Z,10.16
2022-10-05T00:38:39.006Z,10.13
2022-10-05T00:39:38.963Z,10.12
2022-10-05T00:40:38.936Z,10.11
2022-10-05T00:41:38.923Z,10.11
2022-10-05T00:42:38.940Z,10.11
2022-10-05T00:43:38.898Z,10.11
2022-10-05T00:44:38.894Z,10.12
2022-10-05T00:45:38.931Z,10.13
2022-10-05T00:46:38.853Z,10.14
2022-10-05T00:47:38.851Z,10.16
2022-10-05T00:48:38.824Z,10.17
2022-10-05T00:49:38.815Z,10.18
2022-10-05T00:50:38.837Z,10.19
2022-10-05T00:51:38.791Z,10.20
2022-10-05T00:52:38.774Z,10.21
2022-10-05T00:53:38.763Z,10.22
2022-10-05T00:54:38.749Z,10.22
2022-10-05T00:55:38.741Z,10.22
2022-10-05T00:56:38.717Z,10.23
2022-10-05T00:57:38.707Z,10.23
2022-10-05T00:58:38.691Z,10.24
2022-10-05T00:59:38.681Z,10.25
2022-10-05T01:00:38.673Z,10.25
2022-10-05T01:01:38.717Z,10.25
2022-10-05T01:02:38.709Z,10.22
2022-10-05T01:03:38.622Z,10.18
2022-10-05T01:04:38.622Z,10.14
2022-10-05T01:05:38.610Z,10.11
2022-10-05T01:06:38.593Z,10.06
2022-10-05T01:07:38.578Z,10.02
2022-10-05T01:08:38.556Z,9.98
2022-10-05T01:09:38.546Z,9.96
2022-10-05T01:10:38.584Z,9.94
2022-10-05T01:11:38.561Z,9.93
2022-10-05T01:16:25.964Z,11.15
2022-10-05T01:17:26.939Z,10.72
2022-10-05T01:18:26.931Z,10.44
2022-10-05T01:19:26.706Z,10.28
2022-10-05T01:20:26.727Z,10.20
2022-10-05T01:21:26.674Z,10.16
2022-10-05T01:22:26.757Z,10.14
2022-10-05T01:23:26.624Z,10.14
2022-10-05T01:26:27.249Z,11.27
2022-10-05T01:27:19.708Z,10.84
2022-10-05T01:29:33.623Z,11.29
2022-10-05T01:36:05.415Z,11.36
2022-10-05T01:37:06.130Z,10.92
2022-10-05T01:38:06.077Z,10.63
2022-10-05T01:39:06.669Z,10.47
2022-10-05T01:40:06.314Z,10.37
2022-10-05T01:41:06.327Z,10.32
2022-10-05T01:42:07.002Z,10.30
2022-10-05T01:43:06.225Z,10.28
2022-10-05T01:54:20.934Z,11.33
2022-10-05T01:55:22.303Z,10.89
2022-10-05T01:56:20.854Z,10.60
2022-10-05T01:57:20.881Z,10.45
2022-10-05T01:58:20.750Z,10.36
2022-10-05T01:59:20.826Z,10.31
2022-10-05T02:00:20.773Z,10.29
2022-10-05T02:01:42.694Z,10.29
2022-10-05T02:02:20.786Z,10.29
2022-10-05T02:03:20.581Z,10.29
2022-10-05T02:04:42.728Z,10.29
2022-10-05T02:05:20.761Z,10.30
2022-10-05T02:06:20.512Z,10.30
2022-10-05T02:07:20.515Z,10.31
2022-10-05T02:08:20.473Z,10.32
2022-10-05T02:09:20.450Z,10.33
2022-10-05T02:10:20.481Z,10.34
2022-10-05T02:11:20.639Z,10.36
2022-10-05T02:16:49.937Z,11.53
2022-10-05T02:17:47.580Z,11.09
2022-10-05T02:18:48.501Z,10.80
2022-10-05T02:19:55.932Z,10.63
2022-10-05T02:20:47.389Z,10.54
2022-10-05T02:21:47.231Z,10.49
2022-10-05T02:22:48.415Z,10.46
2022-10-05T02:23:47.354Z,10.44
2022-10-05T02:25:02.128Z,10.43
2022-10-05T02:25:47.319Z,10.42
2022-10-05T02:26:58.034Z,10.41
2022-10-05T02:27:48.742Z,10.40
2022-10-05T02:30:16.826Z,11.51
2022-10-05T02:31:16.864Z,11.07
2022-10-05T02:32:16.917Z,10.78
2022-10-05T02:33:17.120Z,10.62
2022-10-05T02:35:47.767Z,11.51
2022-10-05T02:40:49.312Z,11.50
2022-10-05T02:42:54.178Z,11.51
2022-10-05T02:46:09.732Z,11.52
2022-10-05T02:47:11.110Z,11.08
2022-10-05T02:48:10.472Z,10.79
2022-10-05T02:49:10.302Z,10.61
2022-10-05T02:50:10.506Z,10.51
2022-10-05T02:51:10.279Z,10.44
2022-10-05T02:52:10.139Z,10.41
2022-10-05T02:53:10.238Z,10.38
2022-10-05T02:56:14.013Z,11.32
2022-10-05T02:57:14.585Z,10.88
2022-10-05T02:58:14.938Z,10.58
2022-10-05T02:59:14.589Z,10.40
2022-10-05T03:03:07.689Z,11.02
2022-10-05T03:04:08.618Z,10.57
2022-10-05T03:08:42.323Z,10.83
2022-10-05T03:09:41.016Z,10.37
2022-10-05T03:10:41.024Z,10.05
2022-10-05T03:11:40.909Z,9.86
2022-10-05T03:12:41.046Z,9.75
2022-10-05T03:13:40.901Z,9.68
2022-10-05T03:14:40.923Z,9.62
2022-10-05T03:15:40.844Z,9.58
2022-10-05T03:16:40.774Z,9.55
2022-10-05T03:17:40.857Z,9.52
2022-10-05T03:18:40.759Z,9.49
2022-10-05T03:19:40.963Z,9.46
2022-10-05T03:20:40.882Z,9.43
2022-10-05T03:23:00.816Z,10.49
2022-10-05T03:24:01.624Z,10.05
2022-10-05T03:25:01.755Z,9.76
2022-10-05T03:26:01.558Z,9.60
2022-10-05T03:27:01.524Z,9.53
2022-10-05T03:28:01.575Z,9.52
2022-10-05T03:29:02.418Z,9.52
2022-10-05T03:30:01.658Z,9.53
2022-10-05T03:31:01.599Z,9.55
2022-10-05T03:32:01.624Z,9.57
2022-10-05T03:33:10.554Z,9.59
2022-10-05T03:34:00.464Z,9.62
2022-10-05T03:35:01.418Z,9.66
2022-10-05T03:36:02.012Z,9.70
2022-10-05T03:37:01.414Z,9.74
2022-10-05T03:38:01.408Z,9.77
2022-10-05T03:39:02.070Z,9.79
2022-10-05T03:40:01.373Z,9.78
2022-10-05T03:41:01.445Z,9.76
2022-10-05T03:42:01.226Z,9.75
2022-10-05T03:43:01.324Z,9.75
2022-10-05T03:44:05.061Z,9.74
2022-10-05T03:45:02.354Z,9.74
2022-10-05T03:46:01.431Z,9.75
2022-10-05T03:49:00.863Z,10.98
2022-10-05T03:50:00.049Z,10.54
2022-10-05T03:53:09.374Z,10.87
2022-10-05T03:54:10.129Z,10.42
2022-10-05T03:55:09.909Z,10.11
2022-10-05T03:56:10.014Z,9.92
2022-10-05T03:57:10.431Z,9.79
2022-10-05T03:58:10.021Z,9.70
2022-10-05T03:59:09.988Z,9.64
2022-10-05T04:04:52.613Z,10.63
2022-10-05T04:05:53.489Z,10.19
2022-10-05T04:06:53.262Z,9.90
2022-10-05T04:07:53.292Z,9.74
2022-10-05T04:11:27.080Z,10.59
2022-10-05T04:12:27.919Z,10.15
2022-10-05T04:13:27.745Z,9.86
2022-10-05T04:14:29.213Z,9.69
2022-10-05T04:15:27.642Z,9.58
2022-10-05T04:16:29.264Z,9.51
2022-10-05T04:17:27.745Z,9.46
2022-10-05T04:22:19.876Z,10.40
2022-10-05T04:23:20.782Z,9.95
2022-10-05T04:24:20.506Z,9.64
2022-10-05T04:25:20.637Z,9.47
2022-10-05T04:26:20.655Z,9.37
2022-10-05T04:27:20.709Z,9.31
2022-10-05T04:28:28.326Z,9.26
2022-10-05T04:29:20.639Z,9.23
2022-10-05T04:30:38.291Z,9.20
2022-10-05T04:31:20.777Z,9.16
2022-10-05T04:32:20.700Z,9.13
2022-10-05T04:33:21.558Z,9.11
2022-10-05T04:34:19.909Z,9.09
2022-10-05T04:35:20.740Z,9.08
2022-10-05T04:36:20.499Z,9.07
2022-10-05T04:37:20.432Z,9.07
2022-10-05T04:38:20.541Z,9.07
2022-10-05T04:39:20.473Z,9.07
2022-10-05T04:40:20.471Z,9.08
2022-10-05T04:41:20.253Z,9.08
2022-10-05T04:42:28.269Z,9.08
2022-10-05T04:43:20.201Z,9.08
2022-10-05T04:44:20.347Z,9.07
2022-10-05T04:45:20.401Z,9.07
2022-10-05T04:46:30.612Z,9.07
2022-10-05T04:47:20.136Z,9.07
2022-10-05T04:48:20.104Z,9.08
2022-10-05T04:49:20.088Z,9.09
2022-10-05T04:50:20.069Z,9.10
2022-10-05T04:51:20.061Z,9.11
2022-10-05T04:52:20.066Z,9.11
2022-10-05T04:53:20.031Z,9.11
2022-10-05T04:54:20.030Z,9.10
2022-10-05T04:55:20.002Z,9.10
2022-10-05T04:56:19.989Z,9.10
2022-10-05T04:57:20.015Z,9.10
2022-10-05T04:58:19.962Z,9.10
2022-10-05T04:59:19.952Z,9.09
2022-10-05T05:00:19.946Z,9.09
2022-10-05T05:01:19.976Z,9.09
2022-10-05T05:02:19.914Z,9.09
2022-10-05T05:03:19.966Z,9.09
2022-10-05T05:04:19.885Z,9.10
2022-10-05T05:05:19.869Z,9.11
2022-10-05T05:06:19.864Z,9.13
2022-10-05T05:07:19.854Z,9.13
2022-10-05T05:08:19.835Z,9.14
2022-10-05T05:09:19.846Z,9.14
2022-10-05T05:10:19.799Z,9.13
2022-10-05T05:11:23.781Z,9.13
2022-10-05T05:12:19.778Z,9.13
2022-10-05T05:13:19.768Z,9.14
2022-10-05T05:14:19.750Z,9.14
2022-10-05T05:15:19.757Z,9.14
2022-10-05T05:16:19.774Z,9.14
2022-10-05T05:17:19.734Z,9.15
2022-10-05T05:18:19.704Z,9.18
2022-10-05T05:19:19.712Z,9.21
2022-10-05T05:20:19.676Z,9.23
2022-10-05T05:21:19.679Z,9.26
2022-10-05T05:22:19.672Z,9.28
2022-10-05T05:23:19.661Z,9.30
2022-10-05T05:24:19.634Z,9.31
2022-10-05T05:25:19.627Z,9.31
2022-10-05T05:26:19.619Z,9.32
2022-10-05T05:27:19.597Z,9.32
2022-10-05T05:28:19.631Z,9.33
2022-10-05T05:29:19.567Z,9.33
2022-10-05T05:30:19.558Z,9.31
2022-10-05T05:31:19.722Z,9.29
2022-10-05T05:32:19.539Z,9.27
2022-10-05T05:33:19.548Z,9.25
2022-10-05T05:34:19.511Z,9.24
2022-10-05T05:35:19.504Z,9.23
2022-10-05T05:36:23.079Z,9.22
2022-10-05T05:37:19.469Z,9.22
2022-10-05T05:38:19.481Z,9.21
2022-10-05T05:39:19.448Z,9.21
2022-10-05T05:40:36.434Z,10.34
2022-10-05T05:41:37.429Z,9.90
2022-10-05T05:42:37.416Z,9.63
2022-10-05T05:43:37.409Z,9.47
2022-10-05T05:44:38.956Z,9.39
2022-10-05T05:45:37.376Z,9.35
2022-10-05T05:46:58.728Z,9.32
2022-10-05T05:47:37.449Z,9.31
2022-10-05T05:48:37.339Z,9.31
2022-10-05T05:49:37.332Z,9.32
2022-10-05T05:50:37.321Z,9.32
2022-10-05T05:51:37.308Z,9.33
2022-10-05T05:52:37.303Z,9.34
2022-10-05T05:53:37.277Z,9.35
2022-10-05T05:54:37.266Z,9.36
2022-10-05T05:55:37.258Z,9.38
2022-10-05T05:56:37.239Z,9.39
2022-10-05T05:57:37.280Z,9.41
2022-10-05T05:58:37.217Z,9.43
2022-10-05T05:59:37.213Z,9.45
2022-10-05T06:00:37.206Z,9.48
2022-10-05T06:01:40.707Z,9.50
2022-10-05T06:02:37.297Z,9.52
2022-10-05T06:03:37.162Z,9.53
2022-10-05T06:04:37.143Z,9.55
2022-10-05T06:05:37.140Z,9.56
2022-10-05T06:06:37.133Z,9.57
2022-10-05T06:07:37.114Z,9.58
2022-10-05T06:08:37.094Z,9.59
2022-10-05T06:09:37.075Z,9.60
2022-10-05T06:10:37.079Z,9.60
2022-10-05T06:11:37.053Z,9.60
2022-10-05T06:12:37.060Z,9.60
2022-10-05T06:13:37.050Z,9.61
2022-10-05T06:14:37.019Z,9.62
2022-10-05T06:15:37.028Z,9.64
2022-10-05T06:16:37.127Z,9.66
2022-10-05T06:17:36.978Z,9.68
2022-10-05T06:18:36.981Z,9.71
2022-10-05T06:19:36.966Z,9.73
2022-10-05T06:20:36.950Z,9.75
2022-10-05T06:21:36.945Z,9.76
2022-10-05T06:22:36.920Z,9.78
2022-10-05T06:23:36.906Z,9.82
2022-10-05T06:24:36.961Z,9.89
2022-10-05T06:25:36.890Z,9.97
2022-10-05T06:26:36.891Z,10.04
2022-10-05T06:27:36.875Z,10.10
2022-10-05T06:28:36.923Z,10.13
2022-10-05T06:29:36.839Z,10.16
2022-10-05T06:30:36.824Z,10.18
2022-10-05T06:31:36.888Z,10.19
2022-10-05T06:32:36.808Z,10.20
2022-10-05T06:33:36.799Z,10.22
2022-10-05T06:34:36.775Z,10.24
2022-10-05T06:35:36.761Z,10.26
2022-10-05T06:36:36.762Z,10.28
2022-10-05T06:37:36.737Z,10.30
2022-10-05T06:38:36.734Z,10.32
2022-10-05T06:39:36.752Z,10.34
2022-10-05T06:40:36.715Z,10.36
2022-10-05T06:41:36.691Z,10.39
2022-10-05T06:42:36.679Z,10.41
2022-10-05T06:43:36.659Z,10.44
2022-10-05T06:44:36.674Z,10.46
2022-10-05T06:45:36.692Z,10.48
2022-10-05T06:46:36.627Z,10.51
2022-10-05T06:47:36.633Z,10.53
2022-10-05T06:48:36.592Z,10.56
2022-10-05T06:49:36.588Z,10.58
2022-10-05T06:50:36.584Z,10.61
2022-10-05T06:51:36.578Z,10.63
2022-10-05T06:52:36.561Z,10.66
2022-10-05T06:53:36.533Z,10.68
2022-10-05T06:54:36.519Z,10.71
2022-10-05T06:55:36.501Z,10.73
2022-10-05T06:56:36.507Z,10.75
2022-10-05T06:57:36.486Z,10.78
2022-10-05T06:58:36.470Z,10.80
2022-10-05T06:59:36.453Z,10.82
2022-10-05T07:00:36.450Z,10.84
2022-10-05T07:01:36.440Z,10.86
2022-10-05T07:02:36.480Z,10.88
2022-10-05T07:03:36.405Z,10.90
2022-10-05T07:04:37.225Z,10.92
2022-10-05T07:05:36.375Z,10.95
2022-10-05T07:06:36.375Z,10.97
2022-10-05T07:07:36.354Z,10.99
2022-10-05T07:08:36.327Z,11.01
2022-10-05T07:09:36.317Z,11.04
2022-10-05T07:10:36.307Z,11.06
2022-10-05T07:11:36.287Z,11.09
2022-10-05T07:12:36.286Z,11.13
2022-10-05T07:13:36.261Z,11.16
2022-10-05T07:14:36.263Z,11.19
2022-10-05T07:15:36.260Z,11.22
2022-10-05T07:16:36.300Z,11.26
2022-10-05T07:17:36.220Z,11.29
2022-10-05T07:18:36.231Z,11.32
2022-10-05T07:19:36.182Z,11.34
2022-10-05T07:20:36.169Z,11.37
2022-10-05T07:21:36.154Z,11.40
2022-10-05T07:22:36.160Z,11.43
2022-10-05T07:23:36.139Z,11.46
2022-10-05T07:24:36.127Z,11.49
2022-10-05T07:25:36.104Z,11.52
2022-10-05T07:26:36.095Z,11.55
2022-10-05T07:27:36.094Z,11.59
2022-10-05T07:28:36.198Z,11.63
2022-10-05T07:29:36.046Z,11.67
2022-10-05T07:30:36.113Z,11.71
2022-10-05T07:31:36.033Z,11.76
2022-10-05T07:32:36.024Z,11.79
2022-10-05T07:33:36.006Z,11.83
2022-10-05T07:34:35.991Z,11.86
2022-10-05T07:35:35.972Z,11.89
2022-10-05T07:36:35.963Z,11.92
2022-10-05T07:37:35.945Z,11.95
2022-10-05T07:38:35.949Z,11.99
2022-10-05T07:39:58.294Z,12.01
2022-10-05T07:40:35.919Z,12.04
2022-10-05T07:41:35.942Z,12.07
2022-10-05T07:42:41.751Z,12.11
2022-10-05T07:44:00.465Z,12.14
2022-10-05T07:44:35.869Z,12.18
2022-10-05T07:45:35.898Z,12.21
2022-10-05T07:46:35.842Z,12.25
2022-10-05T07:47:35.820Z,12.28
2022-10-05T07:48:35.827Z,12.31
2022-10-05T07:49:35.859Z,12.34
2022-10-05T07:50:35.793Z,12.38
2022-10-05T07:51:35.787Z,12.41
2022-10-05T07:52:35.774Z,12.45
2022-10-05T07:53:35.749Z,12.49
2022-10-05T07:54:35.732Z,12.53
2022-10-05T07:55:35.751Z,12.56
2022-10-05T07:56:35.712Z,12.59
2022-10-05T07:57:35.690Z,12.63
2022-10-05T07:58:35.709Z,12.66
2022-10-05T07:59:35.687Z,12.69
2022-10-05T08:00:35.654Z,12.72
2022-10-05T08:01:35.705Z,12.75
2022-10-05T08:02:35.697Z,12.78
2022-10-05T08:03:35.639Z,12.81
2022-10-05T08:04:40.741Z,12.84
2022-10-05T08:05:35.589Z,12.88
2022-10-05T08:06:35.576Z,12.92
2022-10-05T08:07:35.574Z,12.96
2022-10-05T08:08:35.549Z,13.00
2022-10-05T08:09:35.543Z,13.04
2022-10-05T08:10:35.514Z,13.08
2022-10-05T08:11:35.520Z,13.13
2022-10-05T08:12:35.486Z,13.17
2022-10-05T08:13:35.493Z,13.22
2022-10-05T08:14:35.467Z,13.25
2022-10-05T08:15:35.523Z,13.29
2022-10-05T08:16:35.441Z,13.31
2022-10-05T08:17:35.409Z,13.35
2022-10-05T08:18:35.401Z,13.39
2022-10-05T08:19:35.393Z,13.43
2022-10-05T08:20:35.380Z,13.48
2022-10-05T08:21:35.361Z,13.52
2022-10-05T08:22:35.355Z,13.56
2022-10-05T08:23:35.331Z,13.59
2022-10-05T08:24:35.343Z,13.63
2022-10-05T08:25:35.299Z,13.68
2022-10-05T08:26:35.302Z,13.72
2022-10-05T08:27:35.291Z,13.76
2022-10-05T08:28:35.332Z,13.79
2022-10-05T08:29:35.264Z,13.83
2022-10-05T08:30:35.245Z,13.87
2022-10-05T08:31:35.259Z,13.92
2022-10-05T08:32:35.207Z,13.97
2022-10-05T08:33:35.191Z,14.02
2022-10-05T08:34:35.190Z,14.07
2022-10-05T08:35:35.177Z,14.13
2022-10-05T08:36:35.152Z,14.18
2022-10-05T08:37:35.196Z,14.24
2022-10-05T08:38:35.126Z,14.30
2022-10-05T08:39:35.121Z,14.35
2022-10-05T08:40:35.091Z,14.41
2022-10-05T08:41:35.099Z,14.46
2022-10-05T08:42:35.067Z,14.50
2022-10-05T08:43:35.578Z,14.55
2022-10-05T08:44:35.053Z,14.59
2022-10-05T08:45:35.024Z,14.61
2022-10-05T08:46:35.069Z,14.63
2022-10-05T08:47:35.009Z,14.66
2022-10-05T08:48:35.003Z,14.69
2022-10-05T08:49:35.449Z,14.72
2022-10-05T08:50:34.960Z,14.77
2022-10-05T08:51:34.943Z,14.82
2022-10-05T08:52:34.929Z,14.87
2022-10-05T08:53:34.915Z,14.94
2022-10-05T08:54:34.917Z,15.01
2022-10-05T08:55:34.899Z,15.07
2022-10-05T08:56:34.887Z,15.14
2022-10-05T08:57:34.853Z,15.20
2022-10-05T08:58:34.840Z,15.26
2022-10-05T08:59:34.835Z,15.32
2022-10-05T09:00:34.836Z,15.39
2022-10-05T09:01:34.913Z,15.46
2022-10-05T09:02:34.874Z,15.51
2022-10-05T09:03:34.882Z,15.55
2022-10-05T09:04:34.772Z,15.58
2022-10-05T09:05:34.754Z,15.61
2022-10-05T09:06:34.745Z,15.64
2022-10-05T09:07:35.753Z,15.68
2022-10-05T09:08:34.710Z,15.74
2022-10-05T09:09:34.694Z,15.82
2022-10-05T09:10:34.701Z,15.91
2022-10-05T09:11:34.693Z,15.98
2022-10-05T09:12:34.653Z,16.04
2022-10-05T09:13:34.722Z,16.10
2022-10-05T09:14:34.662Z,16.13
2022-10-05T09:15:34.667Z,16.14
2022-10-05T09:16:34.605Z,16.13
2022-10-05T09:17:38.561Z,16.10
2022-10-05T09:18:34.580Z,16.08
2022-10-05T09:19:34.583Z,16.07
2022-10-05T09:20:34.565Z,16.06
2022-10-05T09:21:34.541Z,16.06
2022-10-05T09:22:34.542Z,16.08
2022-10-05T09:23:34.507Z,16.14
2022-10-05T09:24:34.502Z,16.20
2022-10-05T09:25:34.503Z,16.26
2022-10-05T09:26:34.471Z,16.30
2022-10-05T09:27:34.459Z,16.32
2022-10-05T09:28:34.539Z,16.34
2022-10-05T09:29:34.431Z,16.35
2022-10-05T09:30:34.444Z,16.39
2022-10-05T09:31:34.413Z,16.44
2022-10-05T09:32:34.400Z,16.50
2022-10-05T09:33:34.386Z,16.56
2022-10-05T09:34:34.379Z,16.62
2022-10-05T09:35:34.370Z,16.66
2022-10-05T09:36:34.352Z,16.71
2022-10-05T09:37:34.334Z,16.75
2022-10-05T09:38:34.320Z,16.78
2022-10-05T09:39:34.314Z,16.78
2022-10-05T09:40:34.286Z,16.78
2022-10-05T09:41:34.279Z,16.78
2022-10-05T09:42:34.262Z,16.78
2022-10-05T09:43:34.259Z,16.77
2022-10-05T09:44:34.231Z,16.78
2022-10-05T09:45:34.226Z,16.79
2022-10-05T09:46:34.269Z,16.80
2022-10-05T09:47:34.198Z,16.81
2022-10-05T09:48:34.184Z,16.81
2022-10-05T09:49:34.162Z,16.80
2022-10-05T09:50:34.162Z,16.78
2022-10-05T09:51:34.154Z,16.76
2022-10-05T09:52:34.126Z,16.74
2022-10-05T09:53:34.117Z,16.72
2022-10-05T09:54:34.108Z,16.71
2022-10-05T09:55:34.090Z,16.73
2022-10-05T09:56:34.092Z,16.75
2022-10-05T09:57:34.054Z,16.77
2022-10-05T09:58:34.057Z,16.79
2022-10-05T09:59:34.051Z,16.81
2022-10-05T10:00:34.021Z,16.85
2022-10-05T10:01:44.687Z,16.89
2022-10-05T10:02:34.158Z,16.92
2022-10-05T10:03:34.050Z,16.95
2022-10-05T10:04:33.974Z,16.98
2022-10-05T10:05:33.957Z,17.01
2022-10-05T10:06:33.962Z,17.02
2022-10-05T10:07:33.949Z,17.02
2022-10-05T10:08:33.918Z,17.02
2022-10-05T10:09:37.876Z,17.03
2022-10-05T10:10:33.892Z,17.05
2022-10-05T10:11:33.885Z,17.07
2022-10-05T10:12:33.880Z,17.10
2022-10-05T10:13:33.861Z,17.12
2022-10-05T10:14:33.841Z,17.15
2022-10-05T10:15:33.863Z,17.18
2022-10-05T10:16:33.833Z,17.24
2022-10-05T10:17:33.815Z,17.31
2022-10-05T10:18:33.788Z,17.37
2022-10-05T10:19:33.789Z,17.40
2022-10-05T10:20:33.765Z,17.41
2022-10-05T10:21:33.768Z,17.40
2022-10-05T10:22:33.754Z,17.40
2022-10-05T10:23:33.731Z,17.41
2022-10-05T10:24:33.715Z,17.44
2022-10-05T10:25:33.715Z,17.45
2022-10-05T10:26:33.684Z,17.44
2022-10-05T10:27:33.702Z,17.42
2022-10-05T10:28:33.744Z,17.39
2022-10-05T10:29:33.651Z,17.35
2022-10-05T10:30:36.384Z,17.31
2022-10-05T10:31:33.814Z,17.29
2022-10-05T10:32:33.616Z,17.27
2022-10-05T10:33:33.601Z,17.27
2022-10-05T10:34:33.588Z,17.27
2022-10-05T10:35:33.590Z,17.29
2022-10-05T10:36:33.557Z,17.30
2022-10-05T10:37:33.563Z,17.33
2022-10-05T10:38:33.542Z,17.36
2022-10-05T10:39:33.521Z,17.38
2022-10-05T10:40:33.514Z,17.41
2022-10-05T10:41:33.498Z,17.43
2022-10-05T10:42:33.497Z,17.45
2022-10-05T10:43:33.506Z,17.49
2022-10-05T10:44:33.459Z,17.54
2022-10-05T10:45:33.452Z,17.58
2022-10-05T10:46:33.561Z,17.61
2022-10-05T10:47:33.419Z,17.64
2022-10-05T10:48:33.430Z,17.66
2022-10-05T10:49:33.389Z,17.67
2022-10-05T10:50:33.379Z,17.69
2022-10-05T10:51:33.391Z,17.74
2022-10-05T10:52:33.362Z,17.79
2022-10-05T10:53:33.344Z,17.81
2022-10-05T10:54:33.343Z,17.83
2022-10-05T10:55:33.310Z,17.86
2022-10-05T10:56:33.302Z,17.88
2022-10-05T10:57:33.289Z,17.91
2022-10-05T10:58:33.285Z,17.92
2022-10-05T10:59:33.259Z,17.92
2022-10-05T11:00:33.254Z,17.92
2022-10-05T11:01:33.329Z,17.92
2022-10-05T11:02:33.317Z,17.92
2022-10-05T11:03:33.214Z,17.93
2022-10-05T11:04:33.189Z,17.94
2022-10-05T11:05:33.192Z,17.96
2022-10-05T11:06:33.158Z,17.97
2022-10-05T11:07:33.160Z,17.97
2022-10-05T11:08:33.148Z,17.99
2022-10-05T11:09:33.119Z,18.02
2022-10-05T11:10:33.142Z,18.08
2022-10-05T11:11:33.096Z,18.14
2022-10-05T11:12:34.683Z,18.20
2022-10-05T11:13:33.078Z,18.25
2022-10-05T11:14:33.070Z,18.31
2022-10-05T11:15:33.100Z,18.37
2022-10-05T11:16:33.124Z,18.43
2022-10-05T11:17:33.015Z,18.47
2022-10-05T11:18:33.707Z,18.52
2022-10-05T11:19:40.154Z,18.57
2022-10-05T11:20:33.029Z,18.62
2022-10-05T11:21:33.947Z,18.66
2022-10-05T11:22:32.949Z,18.70
2022-10-05T11:23:38.646Z,18.74
2022-10-05T11:24:32.948Z,18.79
2022-10-05T11:25:32.923Z,18.83
2022-10-05T11:26:32.896Z,18.85
2022-10-05T11:27:32.894Z,18.86
2022-10-05T11:28:32.941Z,18.87
2022-10-05T11:29:32.879Z,18.87
2022-10-05T11:30:32.844Z,18.87
2022-10-05T11:31:32.892Z,18.87
2022-10-05T11:32:32.837Z,18.87
2022-10-05T11:33:32.817Z,18.86
2022-10-05T11:34:32.795Z,18.84
2022-10-05T11:35:32.774Z,18.83
2022-10-05T11:36:32.758Z,18.81
2022-10-05T11:37:32.749Z,18.81
2022-10-05T11:38:33.538Z,18.80
2022-10-05T11:39:32.727Z,18.79
2022-10-05T11:40:32.740Z,18.77
2022-10-05T11:41:32.718Z,18.76
2022-10-05T11:42:32.690Z,18.75
2022-10-05T11:43:32.677Z,18.75
2022-10-05T11:44:32.663Z,18.77
2022-10-05T11:45:33.215Z,18.81
2022-10-05T11:46:32.685Z,18.86
2022-10-05T11:47:32.619Z,18.91
2022-10-05T11:48:32.594Z,18.93
2022-10-05T11:49:32.591Z,18.97
2022-10-05T11:50:32.579Z,18.99
2022-10-05T11:51:32.559Z,19.02
2022-10-05T11:52:32.539Z,19.06
2022-10-05T11:53:32.527Z,19.10
2022-10-05T11:54:41.954Z,19.13
2022-10-05T11:55:32.527Z,19.15
2022-10-05T11:56:32.517Z,19.17
2022-10-05T11:57:32.513Z,19.19
2022-10-05T11:58:32.456Z,19.22
2022-10-05T11:59:32.464Z,19.28
2022-10-05T12:00:32.545Z,19.36
2022-10-05T12:01:32.423Z,19.44
2022-10-05T12:02:32.474Z,19.49
2022-10-05T12:03:32.536Z,19.53
2022-10-05T12:04:32.382Z,19.58
2022-10-05T12:05:32.411Z,19.62
2022-10-05T12:06:32.358Z,19.66
2022-10-05T12:07:32.354Z,19.71
2022-10-05T12:08:32.333Z,19.76
2022-10-05T12:09:32.319Z,19.81
2022-10-05T12:10:32.301Z,19.85
2022-10-05T12:11:32.299Z,19.88
2022-10-05T12:12:32.269Z,19.91
2022-10-05T12:13:32.272Z,19.93
2022-10-05T12:14:32.255Z,19.94
2022-10-05T12:15:32.233Z,19.94
2022-10-05T12:16:32.240Z,19.94
2022-10-05T12:17:32.228Z,19.94
2022-10-05T12:18:32.215Z,19.97
2022-10-05T12:19:32.184Z,20.00
2022-10-05T12:20:32.215Z,20.06
2022-10-05T12:21:32.171Z,20.13
2022-10-05T12:22:32.160Z,20.20
2022-10-05T12:23:32.131Z,20.27
2022-10-05T12:24:32.136Z,20.33
2022-10-05T12:25:32.116Z,20.37
2022-10-05T12:26:32.096Z,20.41
2022-10-05T12:27:32.089Z,20.44
2022-10-05T12:28:32.117Z,20.45
2022-10-05T12:29:32.106Z,20.45
2022-10-05T12:30:32.042Z,20.45
2022-10-05T12:31:32.153Z,20.45
2022-10-05T12:32:32.008Z,20.44
2022-10-05T12:33:32.026Z,20.44
2022-10-05T12:34:31.993Z,20.44
2022-10-05T12:35:47.490Z,20.44
2022-10-05T12:36:59.241Z,20.43
2022-10-05T12:37:31.965Z,20.41
2022-10-05T12:38:31.955Z,20.39
2022-10-05T12:39:31.924Z,20.36
2022-10-05T12:40:31.905Z,20.32
2022-10-05T12:41:32.206Z,20.29
2022-10-05T12:42:31.901Z,20.27
2022-10-05T12:43:31.870Z,20.26
2022-10-05T12:44:31.864Z,20.27
2022-10-05T12:45:31.880Z,20.29
2022-10-05T12:46:31.858Z,20.30
2022-10-05T12:47:31.825Z,20.30
2022-10-05T12:48:31.822Z,20.30
2022-10-05T12:49:31.792Z,20.31
2022-10-05T12:50:31.779Z,20.32
2022-10-05T12:51:31.800Z,20.33
2022-10-05T12:52:31.750Z,20.33
2022-10-05T12:53:31.747Z,20.32
2022-10-05T12:54:31.755Z,20.32
2022-10-05T12:55:31.731Z,20.33
2022-10-05T12:56:31.712Z,20.37
2022-10-05T12:57:31.787Z,20.42
2022-10-05T12:58:31.688Z,20.46
2022-10-05T12:59:31.672Z,20.49
2022-10-05T13:00:31.730Z,20.50
2022-10-05T13:01:31.658Z,20.52
2022-10-05T13:02:31.638Z,20.56
2022-10-05T13:03:31.610Z,20.60
2022-10-05T13:04:31.620Z,20.65
2022-10-05T13:05:31.710Z,20.70
2022-10-05T13:06:32.777Z,20.75
2022-10-05T13:07:31.569Z,20.79
2022-10-05T13:08:31.546Z,20.82
2022-10-05T13:09:31.561Z,20.85
2022-10-05T13:10:31.540Z,20.87
2022-10-05T13:11:31.592Z,20.87
2022-10-05T13:12:31.518Z,20.87
2022-10-05T13:13:31.475Z,20.87
2022-10-05T13:14:38.718Z,20.89
2022-10-05T13:15:31.456Z,20.92
2022-10-05T13:16:31.497Z,20.95
2022-10-05T13:17:32.069Z,20.97
2022-10-05T13:18:31.435Z,20.97
2022-10-05T13:19:31.407Z,20.97
2022-10-05T13:20:31.383Z,20.96
2022-10-05T13:21:31.401Z,20.94
2022-10-05T13:22:31.376Z,20.93
2022-10-05T13:23:31.398Z,20.93
2022-10-05T13:24:31.374Z,20.93
2022-10-05T13:25:31.326Z,20.94
2022-10-05T13:26:31.311Z,20.94
2022-10-05T13:27:31.303Z,20.93
2022-10-05T13:28:31.331Z,20.92
2022-10-05T13:29:31.269Z,20.91
2022-10-05T13:30:31.255Z,20.89
2022-10-05T13:31:31.288Z,20.88
2022-10-05T13:32:31.244Z,20.86
2022-10-05T13:33:31.229Z,20.83
2022-10-05T13:34:31.202Z,20.82
2022-10-05T13:35:31.222Z,20.81
2022-10-05T13:36:31.174Z,20.79
2022-10-05T13:37:31.177Z,20.79
2022-10-05T13:38:31.160Z,20.79
2022-10-05T13:39:31.145Z,20.82
2022-10-05T13:40:31.120Z,20.87
2022-10-05T13:41:31.153Z,20.94
2022-10-05T13:42:31.104Z,21.01
2022-10-05T13:43:31.112Z,21.08
2022-10-05T13:44:31.065Z,21.15
2022-10-05T13:45:31.148Z,21.22
2022-10-05T13:46:31.071Z,21.28
2022-10-05T13:47:31.044Z,21.34
2022-10-05T13:48:31.015Z,21.38
2022-10-05T13:49:30.999Z,21.42
2022-10-05T13:50:33.450Z,21.45
2022-10-05T13:51:30.997Z,21.48
2022-10-05T13:52:30.961Z,21.51
2022-10-05T13:53:30.959Z,21.54
2022-10-05T13:54:30.936Z,21.57
2022-10-05T13:55:30.931Z,21.60
2022-10-05T13:56:30.922Z,21.62
2022-10-05T13:57:30.898Z,21.64
2022-10-05T13:58:30.958Z,21.66
2022-10-05T13:59:30.872Z,21.67
2022-10-05T14:00:30.857Z,21.67
2022-10-05T14:01:30.848Z,21.67